createdAt,value
2022-11-29T00:01:11.375Z,23.50
2022-11-29T00:03:40.877Z,23.55
2022-11-29T00:06:12.543Z,24.17
2022-11-29T00:08:42.041Z,24.42
2022-11-29T00:11:18.511Z,23.50
2022-11-29T00:13:45.181Z,23.23
2022-11-29T00:16:11.814Z,22.63
2022-11-29T00:18:38.437Z,21.98
2022-11-29T00:21:08.692Z,22.08
2022-11-29T00:23:36.056Z,22.48
2022-11-29T00:26:07.553Z,23.10
2022-11-29T00:28:35.666Z,23.95
2022-11-29T00:31:15.589Z,23.17
2022-11-29T00:33:42.310Z,21.35
2022-11-29T00:36:12.681Z,23.58
2022-11-29T00:38:39.476Z,24.35
2022-11-29T00:41:06.644Z,24.00
2022-11-29T00:43:33.377Z,23.80
2022-11-29T00:46:00.059Z,25.48
2022-11-29T00:48:29.653Z,23.88
2022-11-29T00:50:56.371Z,23.83
2022-11-29T00:53:23.038Z,23.55
2022-11-29T00:55:51.133Z,24.63
2022-11-29T00:58:18.405Z,25.50
2022-11-29T01:00:45.180Z,24.70
2022-11-29T01:03:12.095Z,24.52
2022-11-29T01:05:38.695Z,25.17
2022-11-29T01:08:05.407Z,25.83
2022-11-29T01:10:32.330Z,28.45
2022-11-29T01:12:59.000Z,28.38
2022-11-29T01:15:25.973Z,26.27
2022-11-29T01:17:52.769Z,29.23
2022-11-29T01:20:19.979Z,29.05
2022-11-29T01:22:46.548Z,30.48
2022-11-29T01:25:18.415Z,28.20
2022-11-29T01:27:45.536Z,26.98
2022-11-29T01:30:13.784Z,25.73
2022-11-29T01:32:40.475Z,24.25
2022-11-29T01:35:08.765Z,25.70
2022-11-29T01:37:35.368Z,25.02
2022-11-29T01:40:05.428Z,26.17
2022-11-29T01:42:32.717Z,26.27
2022-11-29T01:45:18.982Z,27.23
2022-11-29T01:47:49.008Z,25.95
2022-11-29T01:50:15.940Z,27.08
2022-11-29T01:52:42.717Z,27.17
2022-11-29T01:55:09.855Z,27.67
2022-11-29T01:57:39.852Z,27.23
2022-11-29T02:00:14.169Z,26.88
2022-11-29T02:02:51.921Z,28.42
2022-11-29T02:05:19.623Z,27.13
2022-11-29T02:07:51.032Z,28.30
2022-11-29T02:10:18.825Z,29.13
2022-11-29T02:13:00.331Z,28.45
2022-11-29T02:15:42.806Z,28.45
2022-11-29T02:18:28.415Z,31.33
2022-11-29T02:21:25.814Z,30.70
2022-11-29T02:24:11.247Z,31.58
2022-11-29T02:26:43.862Z,30.83
2022-11-29T02:29:32.292Z,29.13
2022-11-29T02:32:04.695Z,29.20
2022-11-29T02:34:52.510Z,29.25
2022-11-29T02:37:27.971Z,28.48
2022-11-29T02:40:25.529Z,28.10
2022-11-29T02:42:56.459Z,27.67
2022-11-29T02:45:44.845Z,27.50
2022-11-29T02:48:33.160Z,27.98
2022-11-29T02:51:40.974Z,27.55
2022-11-29T02:54:20.862Z,27.00
2022-11-29T02:56:58.838Z,27.80
2022-11-29T02:59:31.159Z,25.48
2022-11-29T03:02:22.523Z,26.60
2022-11-29T03:04:56.034Z,27.40
2022-11-29T03:07:41.143Z,27.42
2022-11-29T03:10:43.113Z,24.13
2022-11-29T03:13:20.712Z,25.13
2022-11-29T03:16:02.962Z,27.65
2022-11-29T03:18:53.084Z,27.63
2022-11-29T03:21:44.694Z,28.55
2022-11-29T03:24:23.972Z,30.15
2022-11-29T03:27:06.544Z,29.08
2022-11-29T03:29:38.054Z,27.08
2022-11-29T03:32:21.773Z,29.67
2022-11-29T03:35:30.833Z,26.58
2022-11-29T03:38:20.187Z,28.10
2022-11-29T03:40:52.448Z,29.20
2022-11-29T03:44:09.574Z,27.48
2022-11-29T03:46:54.586Z,28.00
2022-11-29T03:49:39.238Z,28.20
2022-11-29T03:52:29.008Z,26.98
2022-11-29T03:55:26.353Z,28.60
2022-11-29T03:58:31.539Z,27.90
2022-11-29T04:01:29.769Z,28.35
2022-11-29T04:04:34.192Z,27.58
2022-11-29T04:07:12.854Z,28.13
2022-11-29T04:10:36.891Z,29.63
2022-11-29T04:13:33.384Z,27.70
2022-11-29T04:16:09.113Z,28.83
2022-11-29T04:18:57.145Z,29.02
2022-11-29T04:21:42.122Z,30.38
2022-11-29T04:26:45.018Z,25.83
2022-11-29T04:29:41.960Z,27.45
2022-11-29T04:32:33.181Z,29.10
2022-11-29T04:35:16.733Z,28.10
2022-11-29T04:38:11.422Z,28.35
2022-11-29T04:40:53.217Z,28.55
2022-11-29T04:43:50.028Z,26.63
2022-11-29T04:46:44.358Z,27.23
2022-11-29T04:49:44.133Z,26.87
2022-11-29T04:52:32.837Z,24.35
2022-11-29T04:55:30.682Z,21.63
2022-11-29T04:58:31.945Z,20.83
2022-11-29T05:01:12.953Z,19.52
2022-11-29T05:03:50.265Z,19.50
2022-11-29T05:06:42.838Z,21.30
2022-11-29T05:09:31.273Z,21.50
2022-11-29T05:12:23.322Z,21.17
2022-11-29T05:15:01.913Z,19.98
2022-11-29T05:17:50.601Z,20.42
2022-11-29T05:20:46.342Z,22.35
2022-11-29T05:23:50.280Z,20.25
2022-11-29T05:26:27.937Z,21.67
2022-11-29T05:29:21.561Z,21.20
2022-11-29T05:32:00.390Z,21.33
2022-11-29T05:34:35.073Z,20.55
2022-11-29T05:37:33.906Z,21.15
2022-11-29T05:40:32.091Z,20.33
2022-11-29T05:43:16.754Z,22.02
2022-11-29T05:46:12.374Z,22.95
2022-11-29T05:48:59.978Z,23.02
2022-11-29T05:51:29.308Z,22.98
2022-11-29T05:54:13.249Z,23.75
2022-11-29T05:56:56.178Z,25.30
2022-11-29T05:59:27.539Z,24.40
2022-11-29T06:02:22.398Z,25.92
2022-11-29T06:05:03.949Z,24.20
2022-11-29T06:07:45.971Z,26.25
2022-11-29T06:10:19.713Z,26.90
2022-11-29T06:13:15.040Z,28.70
2022-11-29T06:16:03.325Z,30.10
2022-11-29T06:18:58.605Z,29.42
2022-11-29T06:24:25.584Z,34.17
2022-11-29T06:27:14.092Z,29.60
2022-11-29T06:29:52.949Z,30.00
2022-11-29T06:32:59.303Z,33.35
2022-11-29T06:35:42.700Z,29.75
2022-11-29T06:38:29.069Z,30.77
2022-11-29T06:41:02.136Z,31.55
2022-11-29T06:43:30.142Z,33.22
2022-11-29T06:46:14.391Z,31.63
2022-11-29T06:49:02.090Z,36.03
2022-11-29T06:51:35.152Z,31.67
2022-11-29T06:54:25.037Z,33.33
2022-11-29T06:57:00.582Z,31.15
2022-11-29T06:59:38.704Z,30.45
2022-11-29T07:02:24.239Z,31.33
2022-11-29T07:05:17.055Z,29.20
2022-11-29T07:08:19.321Z,29.63
2022-11-29T07:10:50.976Z,29.83
2022-11-29T07:13:19.277Z,32.55
2022-11-29T07:16:08.711Z,32.78
2022-11-29T07:18:50.645Z,31.88
2022-11-29T07:21:38.947Z,32.28
2022-11-29T07:24:14.448Z,31.10
2022-11-29T07:26:49.093Z,30.52
2022-11-29T07:31:56.634Z,29.92
2022-11-29T07:34:38.299Z,31.98
2022-11-29T07:37:26.570Z,32.50
2022-11-29T07:40:03.347Z,33.00
2022-11-29T07:42:53.770Z,31.50
2022-11-29T07:45:29.796Z,32.60
2022-11-29T07:47:56.546Z,32.47
2022-11-29T07:50:24.094Z,31.23
2022-11-29T07:52:50.944Z,32.92
2022-11-29T07:55:20.553Z,31.80
2022-11-29T07:57:48.255Z,34.08
2022-11-29T08:00:16.647Z,32.63
2022-11-29T08:02:53.567Z,34.00
2022-11-29T08:05:23.117Z,32.80
2022-11-29T08:07:50.345Z,33.47
2022-11-29T08:10:17.723Z,34.65
2022-11-29T08:12:49.488Z,35.13
2022-11-29T08:15:20.604Z,35.50
2022-11-29T08:17:47.266Z,35.38
2022-11-29T08:20:15.821Z,36.42
2022-11-29T08:22:54.474Z,36.53
2022-11-29T08:25:25.419Z,35.83
2022-11-29T08:27:52.115Z,37.00
2022-11-29T08:30:18.937Z,37.72
2022-11-29T08:32:51.263Z,36.85
2022-11-29T08:35:20.050Z,36.00
2022-11-29T08:37:46.797Z,36.97
2022-11-29T08:40:18.238Z,38.83
2022-11-29T08:42:51.116Z,35.58
2022-11-29T08:45:17.913Z,38.00
2022-11-29T08:47:44.496Z,35.55
2022-11-29T08:50:18.415Z,34.85
2022-11-29T08:52:47.032Z,36.53
2022-11-29T08:55:13.927Z,36.22
2022-11-29T08:57:41.274Z,36.22
2022-11-29T09:00:09.676Z,36.80
2022-11-29T09:02:36.851Z,37.10
2022-11-29T09:05:05.103Z,35.40
2022-11-29T09:07:37.380Z,37.28
2022-11-29T09:10:06.290Z,36.22
2022-11-29T09:12:32.937Z,35.53
2022-11-29T09:15:00.479Z,36.63
2022-11-29T09:17:27.782Z,39.33
2022-11-29T09:19:54.453Z,38.65
2022-11-29T09:24:55.449Z,37.60
2022-11-29T09:27:24.917Z,38.47
2022-11-29T09:29:57.832Z,35.83
2022-11-29T09:32:25.051Z,37.58
2022-11-29T09:34:51.754Z,35.60
2022-11-29T09:37:18.431Z,38.20
2022-11-29T09:39:45.178Z,35.55
2022-11-29T09:42:29.229Z,36.28
2022-11-29T09:45:21.464Z,34.47
2022-11-29T09:47:59.658Z,36.42
2022-11-29T09:50:37.794Z,36.88
2022-11-29T09:53:26.317Z,34.33
2022-11-29T09:56:37.074Z,34.10
2022-11-29T09:59:09.444Z,34.30
2022-11-29T10:01:46.228Z,36.70
2022-11-29T10:04:23.166Z,37.40
2022-11-29T10:07:05.391Z,33.65
2022-11-29T10:09:45.664Z,33.35
2022-11-29T10:12:12.302Z,33.45
2022-11-29T10:14:54.236Z,33.38
2022-11-29T10:17:34.478Z,30.33
2022-11-29T10:20:19.103Z,30.23
2022-11-29T10:23:12.462Z,32.13
2022-11-29T10:25:42.227Z,31.75
2022-11-29T10:28:14.479Z,31.25
2022-11-29T10:30:42.761Z,31.20
2022-11-29T10:33:27.057Z,31.50
2022-11-29T10:35:59.190Z,30.80
2022-11-29T10:38:33.230Z,29.98
2022-11-29T10:41:07.630Z,30.15
2022-11-29T10:43:34.323Z,30.20
2022-11-29T10:46:01.068Z,30.40
2022-11-29T10:48:30.862Z,31.23
2022-11-29T10:50:57.662Z,30.00
2022-11-29T10:53:31.690Z,30.70
2022-11-29T10:56:14.151Z,28.80
2022-11-29T10:58:58.825Z,27.63
2022-11-29T11:01:26.328Z,30.50
2022-11-29T11:03:55.715Z,26.15
2022-11-29T11:06:26.751Z,26.23
2022-11-29T11:08:56.733Z,27.17
2022-11-29T11:11:32.998Z,27.30
2022-11-29T11:17:29.429Z,25.58
2022-11-29T11:20:21.179Z,26.38
2022-11-29T11:23:20.781Z,26.35
2022-11-29T11:25:47.740Z,26.63
2022-11-29T11:28:23.852Z,27.10
2022-11-29T11:31:00.549Z,27.80
2022-11-29T11:33:32.366Z,28.45
2022-11-29T11:36:13.329Z,27.17
2022-11-29T11:38:49.112Z,27.95
2022-11-29T11:41:29.739Z,26.10
2022-11-29T11:44:00.371Z,25.23
2022-11-29T11:46:46.968Z,27.90
2022-11-29T11:49:24.463Z,25.73
2022-11-29T11:51:51.253Z,25.15
2022-11-29T11:54:18.369Z,26.35
2022-11-29T11:56:45.344Z,25.42
2022-11-29T11:59:23.510Z,25.02
2022-11-29T12:01:51.469Z,25.42
2022-11-29T12:04:37.323Z,25.48
2022-11-29T12:07:29.623Z,23.90
2022-11-29T12:10:10.806Z,24.10
2022-11-29T12:12:41.746Z,23.40
2022-11-29T12:15:17.333Z,23.45
2022-11-29T12:17:55.805Z,22.05
2022-11-29T12:20:25.920Z,23.23
2022-11-29T12:23:14.120Z,23.15
2022-11-29T12:25:53.627Z,23.10
2022-11-29T12:28:28.334Z,24.00
2022-11-29T12:31:15.343Z,22.23
2022-11-29T12:34:10.042Z,21.73
2022-11-29T12:36:42.428Z,23.02
2022-11-29T12:39:39.774Z,22.40
2022-11-29T12:42:21.618Z,23.55
2022-11-29T12:45:04.075Z,25.05
2022-11-29T12:47:55.499Z,23.95
2022-11-29T12:50:35.080Z,23.77
2022-11-29T12:53:33.493Z,23.98
2022-11-29T12:56:27.243Z,22.75
2022-11-29T12:59:32.920Z,25.13
2022-11-29T13:05:28.501Z,25.20
2022-11-29T13:08:05.074Z,23.65
2022-11-29T13:10:49.785Z,23.40
2022-11-29T13:13:43.101Z,22.77
2022-11-29T13:16:31.900Z,25.30
2022-11-29T13:19:07.263Z,22.90
2022-11-29T13:21:38.734Z,24.38
2022-11-29T13:24:29.533Z,24.35
2022-11-29T13:26:57.582Z,24.45
2022-11-29T13:29:25.481Z,22.00
2022-11-29T13:31:52.239Z,22.95
2022-11-29T13:34:21.828Z,24.33
2022-11-29T13:36:48.385Z,23.23
2022-11-29T13:39:48.793Z,24.98
2022-11-29T13:42:29.387Z,24.95
2022-11-29T13:45:16.624Z,25.15
2022-11-29T13:47:54.201Z,23.42
2022-11-29T13:50:41.767Z,25.65
2022-11-29T13:55:58.142Z,26.23
2022-11-29T13:58:27.735Z,24.77
2022-11-29T14:01:00.679Z,25.02
2022-11-29T14:03:37.706Z,24.83
2022-11-29T14:06:11.789Z,23.83
2022-11-29T14:09:21.674Z,23.48
2022-11-29T14:11:48.235Z,24.20
2022-11-29T14:14:47.368Z,22.65
2022-11-29T14:17:32.311Z,24.75
2022-11-29T14:20:37.863Z,23.77
2022-11-29T14:28:21.481Z,23.60
2022-11-29T14:30:51.688Z,24.90
2022-11-29T14:33:24.908Z,24.30
2022-11-29T14:36:22.822Z,25.17
2022-11-29T14:39:26.232Z,22.15
2022-11-29T14:42:24.157Z,23.40
2022-11-29T14:44:59.194Z,21.67
2022-11-29T14:47:33.339Z,23.23
2022-11-29T14:50:05.146Z,22.58
2022-11-29T14:52:37.588Z,22.88
2022-11-29T14:55:16.576Z,21.52
2022-11-29T14:58:01.434Z,22.85
2022-11-29T15:00:30.649Z,21.67
2022-11-29T15:03:19.083Z,22.02
2022-11-29T15:05:59.982Z,21.58
2022-11-29T15:08:26.557Z,20.48
2022-11-29T15:11:01.946Z,22.25
2022-11-29T15:13:34.902Z,23.08
2022-11-29T15:16:23.323Z,22.65
2022-11-29T15:19:05.861Z,20.48
2022-11-29T15:22:08.462Z,21.95
2022-11-29T15:25:10.482Z,21.88
2022-11-29T15:27:40.149Z,21.85
2022-11-29T15:30:32.046Z,21.80
2022-11-29T15:33:00.630Z,20.80
2022-11-29T15:35:28.323Z,22.42
2022-11-29T15:37:55.429Z,21.67
2022-11-29T15:40:27.858Z,22.17
2022-11-29T15:43:06.423Z,23.20
2022-11-29T15:45:36.223Z,23.83
2022-11-29T15:48:18.043Z,24.45
2022-11-29T15:50:51.304Z,22.33
2022-11-29T15:53:44.216Z,20.85
2022-11-29T15:56:39.473Z,21.55
2022-11-29T16:01:38.174Z,22.00
2022-11-29T16:04:05.110Z,23.85
2022-11-29T16:06:42.263Z,24.52
2022-11-29T16:09:15.878Z,24.60
2022-11-29T16:11:42.926Z,23.77
2022-11-29T16:14:23.274Z,25.73
2022-11-29T16:16:52.328Z,26.38
2022-11-29T16:19:22.185Z,24.17
2022-11-29T16:22:21.969Z,24.38
2022-11-29T16:24:56.276Z,24.02
2022-11-29T16:27:23.806Z,23.92
2022-11-29T16:29:51.884Z,25.42
2022-11-29T16:32:26.115Z,24.45
2022-11-29T16:34:53.780Z,25.08
2022-11-29T16:37:42.028Z,23.90
2022-11-29T16:40:20.815Z,24.80
2022-11-29T16:43:22.508Z,24.25
2022-11-29T16:46:04.015Z,24.70
2022-11-29T16:48:31.222Z,24.90
2022-11-29T16:51:27.764Z,24.92
2022-11-29T16:54:01.893Z,24.08
2022-11-29T16:56:31.994Z,24.45
2022-11-29T16:59:17.035Z,24.42
2022-11-29T17:01:53.354Z,23.42
2022-11-29T17:04:25.316Z,26.88
2022-11-29T17:07:00.021Z,25.17
2022-11-29T17:12:01.684Z,22.13
2022-11-29T17:14:29.341Z,26.25
2022-11-29T17:17:00.958Z,25.95
2022-11-29T17:19:38.028Z,25.27
2022-11-29T17:22:04.644Z,25.65
2022-11-29T17:24:32.535Z,24.88
2022-11-29T17:26:59.132Z,28.52
2022-11-29T17:29:26.471Z,25.20
2022-11-29T17:31:55.579Z,25.90
2022-11-29T17:34:22.247Z,25.67
2022-11-29T17:36:49.159Z,26.60
2022-11-29T17:39:36.650Z,27.85
2022-11-29T17:42:03.368Z,24.33
2022-11-29T17:44:30.020Z,26.60
2022-11-29T17:46:56.594Z,25.33
2022-11-29T17:49:23.162Z,26.17
2022-11-29T17:51:52.630Z,25.90
2022-11-29T17:54:20.259Z,25.48
2022-11-29T17:56:46.801Z,25.83
2022-11-29T17:59:13.400Z,26.23
2022-11-29T18:01:40.054Z,25.33
2022-11-29T18:04:06.861Z,28.45
2022-11-29T18:06:38.639Z,28.10
2022-11-29T18:09:07.239Z,26.58
2022-11-29T18:11:49.140Z,26.85
2022-11-29T18:14:21.821Z,26.45
2022-11-29T18:16:49.673Z,26.42
2022-11-29T18:19:23.711Z,27.52
2022-11-29T18:21:51.719Z,26.50
2022-11-29T18:24:18.605Z,27.13
2022-11-29T18:26:45.513Z,26.23
2022-11-29T18:29:12.092Z,26.45
2022-11-29T18:31:41.251Z,26.27
2022-11-29T18:34:09.971Z,27.58
2022-11-29T18:36:40.184Z,26.73
2022-11-29T18:39:09.619Z,26.00
2022-11-29T18:41:37.766Z,27.65
2022-11-29T18:44:07.827Z,27.08
2022-11-29T18:46:36.658Z,27.23
2022-11-29T18:49:05.887Z,27.58
2022-11-29T18:51:33.398Z,26.33
2022-11-29T18:54:00.364Z,26.10
2022-11-29T18:56:30.623Z,29.27
2022-11-29T18:58:59.722Z,25.80
2022-11-29T19:01:32.128Z,28.45
2022-11-29T19:04:00.288Z,28.00
2022-11-29T19:06:39.040Z,27.33
2022-11-29T19:09:11.637Z,26.45
2022-11-29T19:11:38.463Z,27.30
2022-11-29T19:14:07.451Z,30.20
2022-11-29T19:16:34.669Z,28.58
2022-11-29T19:19:02.163Z,29.63
2022-11-29T19:21:31.065Z,28.65
2022-11-29T19:24:00.161Z,30.02
2022-11-29T19:26:29.083Z,30.70
2022-11-29T19:28:56.822Z,31.38
2022-11-29T19:31:25.024Z,27.73
2022-11-29T19:33:52.143Z,28.08
2022-11-29T19:36:21.691Z,29.35
2022-11-29T19:38:57.795Z,28.85
2022-11-29T19:41:27.653Z,27.83
2022-11-29T19:43:57.472Z,29.73
2022-11-29T19:46:29.230Z,29.65
2022-11-29T19:49:00.664Z,29.13
2022-11-29T19:51:28.595Z,31.15
2022-11-29T19:53:57.548Z,29.38
2022-11-29T19:56:24.846Z,29.52
2022-11-29T19:58:52.614Z,30.75
2022-11-29T20:01:21.301Z,28.08
2022-11-29T20:03:48.203Z,30.15
2022-11-29T20:06:16.156Z,29.05
2022-11-29T20:08:43.522Z,29.50
2022-11-29T20:11:15.648Z,26.98
2022-11-29T20:13:43.608Z,28.25
2022-11-29T20:16:13.066Z,27.67
2022-11-29T20:18:45.846Z,27.52
2022-11-29T20:21:21.955Z,20.80
2022-11-29T20:23:49.375Z,28.02
2022-11-29T20:26:18.414Z,27.90
2022-11-29T20:28:45.388Z,27.73
2022-11-29T20:31:16.241Z,28.02
2022-11-29T20:33:45.497Z,26.27
2022-11-29T20:36:27.972Z,27.23
2022-11-29T20:39:29.635Z,26.90
2022-11-29T20:42:17.831Z,26.02
2022-11-29T20:44:54.050Z,27.52
2022-11-29T20:47:23.596Z,28.00
2022-11-29T20:49:50.346Z,27.63
2022-11-29T20:52:44.824Z,26.42
2022-11-29T20:55:11.880Z,29.42
2022-11-29T20:57:38.815Z,30.08
2022-11-29T21:00:07.755Z,29.08
2022-11-29T21:02:36.812Z,29.27
2022-11-29T21:05:04.380Z,29.95
2022-11-29T21:07:31.176Z,29.10
2022-11-29T21:10:01.642Z,30.08
2022-11-29T21:12:30.303Z,28.92
2022-11-29T21:14:57.819Z,29.35
2022-11-29T21:17:30.210Z,27.77
2022-11-29T21:20:00.778Z,26.95
2022-11-29T21:23:01.829Z,30.10
2022-11-29T21:25:43.731Z,28.23
2022-11-29T21:28:13.247Z,27.08
2022-11-29T21:30:40.682Z,26.80
2022-11-29T21:33:07.735Z,29.35
2022-11-29T21:35:40.943Z,28.55
2022-11-29T21:38:14.340Z,29.38
2022-11-29T21:40:40.992Z,28.95
2022-11-29T21:43:10.088Z,26.65
2022-11-29T21:45:36.628Z,29.10
2022-11-29T21:48:04.659Z,27.98
2022-11-29T21:50:31.799Z,29.17
2022-11-29T21:52:58.670Z,27.83
2022-11-29T21:55:31.779Z,28.85
2022-11-29T21:57:59.736Z,29.93
2022-11-29T22:00:33.088Z,31.25
2022-11-29T22:03:02.765Z,27.88
2022-11-29T22:05:29.706Z,28.75
2022-11-29T22:08:00.562Z,29.27
2022-11-29T22:10:27.349Z,28.92
2022-11-29T22:12:54.029Z,29.42
2022-11-29T22:15:24.826Z,30.27
2022-11-29T22:17:51.776Z,28.85
2022-11-29T22:20:18.443Z,27.63
2022-11-29T22:22:45.617Z,29.25
2022-11-29T22:25:12.259Z,29.00
2022-11-29T22:27:38.920Z,30.52
2022-11-29T22:30:06.630Z,30.10
2022-11-29T22:32:33.468Z,28.13
2022-11-29T22:35:03.592Z,30.38
2022-11-29T22:37:30.251Z,30.42
2022-11-29T22:39:59.547Z,32.58
2022-11-29T22:42:27.054Z,32.67
2022-11-29T22:44:53.693Z,29.90
2022-11-29T22:47:20.343Z,30.98
2022-11-29T22:49:47.028Z,30.27
2022-11-29T22:52:13.782Z,31.85
2022-11-29T22:54:40.392Z,30.85
2022-11-29T22:57:07.101Z,31.88
2022-11-29T22:59:33.888Z,31.05
2022-11-29T23:02:00.588Z,31.77
2022-11-29T23:04:27.649Z,30.85
2022-11-29T23:06:54.281Z,30.23
2022-11-29T23:09:21.558Z,28.30
2022-11-29T23:11:53.322Z,30.10
2022-11-29T23:14:21.383Z,29.35
2022-11-29T23:16:48.174Z,30.70
2022-11-29T23:19:15.022Z,29.00
2022-11-29T23:21:42.704Z,28.08
2022-11-29T23:24:09.730Z,30.52
2022-11-29T23:26:42.884Z,27.67
2022-11-29T23:29:15.552Z,30.45
2022-11-29T23:31:43.847Z,30.27
2022-11-29T23:34:10.776Z,30.70
2022-11-29T23:36:37.410Z,29.58
2022-11-29T23:39:08.655Z,28.65
2022-11-29T23:41:36.930Z,30.85
2022-11-29T23:44:05.171Z,28.80
2022-11-29T23:46:31.831Z,30.13
2022-11-29T23:48:58.779Z,29.40
2022-11-29T23:51:29.180Z,28.90
2022-11-29T23:53:56.344Z,28.65
2022-11-29T23:56:23.699Z,31.65
2022-11-29T23:58:50.453Z,29.83
